Time;durP1;ratioP1;P1;durP2;ratioP2;P2;SDS_P1;SDS_P2;PMS_P1;PMS_P2;Temp;Humidity;BMP_temperature;BMP_pressure;BME280_temperature;BME280_humidity;BME280_pressure;Samples;Min_cycle;Max_cycle;Signal;HPM_P1;HPM_P2
2021/07/08 00:38:49;;;;;;;11.68;7.10;;;;;;;;;;5120507;23;20039;-69
2021/07/08 00:41:17;;;;;;;8.60;7.13;;;;;;;;;;4980999;28;20033;-71
2021/07/08 00:43:45;;;;;;;10.57;7.32;;;;;;;;;;4985960;28;20074;-71
2021/07/08 00:46:12;;;;;;;9.52;6.85;;;;;;;;;;4989538;28;20048;-71
2021/07/08 00:48:39;;;;;;;11.20;7.47;;;;;;;;;;4976917;28;20023;-72
2021/07/08 00:51:06;;;;;;;10.38;7.00;;;;;;;;;;4989194;28;20442;-70
2021/07/08 00:53:34;;;;;;;11.40;6.90;;;;;;;;;;4982447;28;20030;-70
2021/07/08 00:56:04;;;;;;;9.68;7.03;;;;;;;;;;4987890;28;20049;-72
2021/07/08 00:58:33;;;;;;;9.63;6.78;;;;;;;;;;4988791;28;20057;-70
2021/07/08 01:01:02;;;;;;;11.88;6.78;;;;;;;;;;4987119;28;20042;-69
2021/07/08 01:03:29;;;;;;;10.07;6.50;;;;;;;;;;4986074;28;20102;-73
2021/07/08 01:05:56;;;;;;;12.23;7.05;;;;;;;;;;4982304;28;20186;-69
2021/07/08 01:08:25;;;;;;;8.35;6.70;;;;;;;;;;4995895;28;20336;-70
2021/07/08 01:10:53;;;;;;;11.77;6.93;;;;;;;;;;4995393;28;20026;-70
2021/07/08 01:13:25;;;;;;;9.38;6.60;;;;;;;;;;4981101;28;20117;-69
2021/07/08 01:15:52;;;;;;;9.52;7.20;;;;;;;;;;4983733;28;20042;-72
2021/07/08 01:18:25;;;;;;;11.85;6.72;;;;;;;;;;4995392;28;20082;-70
2021/07/08 01:20:56;;;;;;;13.02;6.60;;;;;;;;;;4990839;28;20031;-71
2021/07/08 01:23:23;;;;;;;13.57;7.15;;;;;;;;;;4967414;28;20121;-70
2021/07/08 01:25:50;;;;;;;8.32;6.43;;;;;;;;;;4989627;28;20019;-71
2021/07/08 01:28:18;;;;;;;7.25;6.43;;;;;;;;;;4979424;28;20039;-69
2021/07/08 01:30:46;;;;;;;12.70;7.15;;;;;;;;;;4991807;28;20547;-71
2021/07/08 01:33:13;;;;;;;10.82;6.80;;;;;;;;;;4981921;28;20101;-70
2021/07/08 01:35:42;;;;;;;9.02;6.90;;;;;;;;;;4982146;28;20034;-70
2021/07/08 01:38:09;;;;;;;9.85;6.72;;;;;;;;;;4982878;28;20053;-71
2021/07/08 01:40:39;;;;;;;10.20;6.88;;;;;;;;;;4984390;28;20810;-70
2021/07/08 01:43:05;;;;;;;9.75;6.72;;;;;;;;;;4987331;28;20029;-72
2021/07/08 01:45:34;;;;;;;9.65;6.63;;;;;;;;;;4993862;28;20031;-71
2021/07/08 01:48:01;;;;;;;9.95;6.50;;;;;;;;;;4987848;28;20035;-69
2021/07/08 01:50:28;;;;;;;12.55;6.97;;;;;;;;;;4983305;28;20031;-70
2021/07/08 01:52:59;;;;;;;9.23;6.13;;;;;;;;;;4985284;28;20420;-71
2021/07/08 01:55:27;;;;;;;8.65;6.38;;;;;;;;;;4994534;28;20027;-68
2021/07/08 01:58:01;;;;;;;11.18;6.35;;;;;;;;;;4998514;28;20049;-72
2021/07/08 02:00:31;;;;;;;8.73;6.80;;;;;;;;;;4989487;28;20037;-69
2021/07/08 02:03:02;;;;;;;9.60;6.47;;;;;;;;;;4992206;28;20126;-71
2021/07/08 02:05:30;;;;;;;7.78;6.40;;;;;;;;;;4985750;28;20033;-71
2021/07/08 02:07:56;;;;;;;8.77;7.13;;;;;;;;;;4994943;28;20415;-71
2021/07/08 02:10:27;;;;;;;9.60;7.00;;;;;;;;;;4991131;28;20031;-71
2021/07/08 02:12:54;;;;;;;11.30;6.95;;;;;;;;;;4996345;28;20064;-70
2021/07/08 02:15:21;;;;;;;10.75;7.10;;;;;;;;;;4991369;28;20022;-68
2021/07/08 02:17:47;;;;;;;9.15;6.65;;;;;;;;;;4986382;28;20030;-71
2021/07/08 02:20:18;;;;;;;9.43;7.32;;;;;;;;;;4988289;28;20406;-70
2021/07/08 02:22:45;;;;;;;8.60;7.15;;;;;;;;;;4990531;28;20034;-71
2021/07/08 02:25:15;;;;;;;10.38;7.80;;;;;;;;;;4983965;28;20031;-71
2021/07/08 02:27:42;;;;;;;13.13;6.68;;;;;;;;;;4982511;28;20030;-70
2021/07/08 02:30:14;;;;;;;9.52;7.05;;;;;;;;;;4984413;28;20030;-71
2021/07/08 02:32:41;;;;;;;10.13;6.93;;;;;;;;;;4992505;28;20036;-70
2021/07/08 02:35:09;;;;;;;7.53;6.72;;;;;;;;;;4987874;28;20117;-71
2021/07/08 02:37:37;;;;;;;9.30;6.70;;;;;;;;;;4984644;28;20051;-69
2021/07/08 02:40:09;;;;;;;10.93;7.03;;;;;;;;;;4987887;28;20037;-71
2021/07/08 02:42:37;;;;;;;12.85;7.63;;;;;;;;;;4990202;28;20038;-68
2021/07/08 02:45:05;;;;;;;13.45;6.90;;;;;;;;;;4989932;28;20041;-69
2021/07/08 02:47:31;;;;;;;8.45;6.85;;;;;;;;;;4988271;28;20373;-71
2021/07/08 02:49:58;;;;;;;10.77;7.50;;;;;;;;;;4987196;28;20033;-70
2021/07/08 02:52:24;;;;;;;11.35;7.13;;;;;;;;;;4983759;28;20042;-70
2021/07/08 02:54:52;;;;;;;11.02;7.60;;;;;;;;;;4984268;28;20033;-70
2021/07/08 02:57:18;;;;;;;8.18;7.35;;;;;;;;;;4989055;28;20030;-73
2021/07/08 02:59:48;;;;;;;9.45;7.30;;;;;;;;;;4993472;28;20089;-69
2021/07/08 03:02:14;;;;;;;9.10;7.50;;;;;;;;;;4980099;28;20373;-68
2021/07/08 03:04:41;;;;;;;12.05;7.57;;;;;;;;;;4987148;28;20030;-70
2021/07/08 03:07:08;;;;;;;10.15;7.55;;;;;;;;;;4987669;28;20065;-71
2021/07/08 03:09:34;;;;;;;10.48;7.53;;;;;;;;;;4982091;28;20542;-74
2021/07/08 03:12:01;;;;;;;9.13;7.40;;;;;;;;;;4985183;28;20034;-72
2021/07/08 03:14:29;;;;;;;31.67;9.10;;;;;;;;;;4995389;28;20042;-73
2021/07/08 03:16:55;;;;;;;14.48;7.60;;;;;;;;;;4990465;28;20065;-70
2021/07/08 03:19:24;;;;;;;13.20;7.93;;;;;;;;;;4979312;28;20019;-71
2021/07/08 03:21:52;;;;;;;9.05;7.20;;;;;;;;;;4990261;28;20032;-74
2021/07/08 03:24:19;;;;;;;9.13;7.43;;;;;;;;;;4996857;28;20109;-71
2021/07/08 03:26:45;;;;;;;19.25;8.25;;;;;;;;;;4988877;28;20042;-72
2021/07/08 03:29:14;;;;;;;16.85;8.02;;;;;;;;;;4983929;28;20030;-72
2021/07/08 03:31:42;;;;;;;12.98;7.15;;;;;;;;;;5001032;28;20049;-74
2021/07/08 03:34:09;;;;;;;9.90;7.25;;;;;;;;;;4991294;28;20546;-72
2021/07/08 03:36:37;;;;;;;11.80;7.75;;;;;;;;;;4987375;28;20041;-75
2021/07/08 03:51:22;;;;;;;15.27;7.95;;;;;;;;;;4964896;28;20022;-74
2021/07/08 03:59:55;;;;;;;19.60;8.20;;;;;;;;;;4965261;28;20094;-72
2021/07/08 04:02:21;;;;;;;10.38;8.00;;;;;;;;;;4968634;28;20092;-77
2021/07/08 04:04:48;;;;;;;9.73;7.75;;;;;;;;;;4962077;28;20027;-68
2021/07/08 04:07:14;;;;;;;12.55;8.07;;;;;;;;;;4960810;28;20039;-70
2021/07/08 04:09:40;;;;;;;10.15;8.10;;;;;;;;;;4965118;28;20033;-70
2021/07/08 04:12:06;;;;;;;12.77;8.25;;;;;;;;;;4966244;28;20103;-67
2021/07/08 04:14:32;;;;;;;10.93;8.02;;;;;;;;;;4957938;28;20023;-67
2021/07/08 04:16:58;;;;;;;13.25;8.00;;;;;;;;;;4963137;28;20046;-70
2021/07/08 04:19:24;;;;;;;14.95;8.00;;;;;;;;;;4955749;28;20128;-68
2021/07/08 04:21:50;;;;;;;12.50;7.32;;;;;;;;;;4968047;28;20101;-67
2021/07/08 04:24:16;;;;;;;11.85;8.30;;;;;;;;;;4961794;28;20066;-67
2021/07/08 04:26:42;;;;;;;9.57;7.93;;;;;;;;;;4964115;28;20380;-75
2021/07/08 04:29:09;;;;;;;24.30;8.48;;;;;;;;;;4959269;28;20457;-69
2021/07/08 04:31:36;;;;;;;20.15;8.95;;;;;;;;;;4970162;28;20062;-72
2021/07/08 04:34:02;;;;;;;15.52;8.18;;;;;;;;;;4970338;28;20086;-71
2021/07/08 04:36:28;;;;;;;18.25;9.10;;;;;;;;;;4959862;28;20034;-68
2021/07/08 04:38:54;;;;;;;19.15;9.52;;;;;;;;;;4962653;28;20121;-67
2021/07/08 04:41:21;;;;;;;18.35;9.02;;;;;;;;;;4958079;28;20024;-66
2021/07/08 04:43:47;;;;;;;22.85;9.00;;;;;;;;;;4958303;28;20489;-66
2021/07/08 04:46:13;;;;;;;23.45;8.93;;;;;;;;;;4962995;28;20046;-70
2021/07/08 04:48:40;;;;;;;23.55;9.57;;;;;;;;;;4968177;28;20018;-67
2021/07/08 04:51:06;;;;;;;22.85;9.50;;;;;;;;;;4968876;28;20026;-68
2021/07/08 04:53:32;;;;;;;41.22;10.45;;;;;;;;;;4954880;28;20544;-66
2021/07/08 04:55:58;;;;;;;28.83;10.00;;;;;;;;;;4956045;28;20485;-69
2021/07/08 04:58:24;;;;;;;22.23;9.88;;;;;;;;;;4961651;28;20481;-69
2021/07/08 05:00:50;;;;;;;25.95;9.75;;;;;;;;;;4964019;28;20515;-66
2021/07/08 05:03:16;;;;;;;17.02;9.60;;;;;;;;;;4960125;28;20054;-69
2021/07/08 05:05:42;;;;;;;19.08;9.32;;;;;;;;;;4959561;28;20034;-70
2021/07/08 05:08:08;;;;;;;20.50;9.55;;;;;;;;;;4965181;28;20054;-68
2021/07/08 05:10:34;;;;;;;10.65;7.78;;;;;;;;;;4966508;28;20019;-69
2021/07/08 05:13:00;;;;;;;23.33;7.97;;;;;;;;;;4964727;28;20038;-68
2021/07/08 05:15:27;;;;;;;28.50;9.38;;;;;;;;;;4959960;28;20019;-69
2021/07/08 05:17:53;;;;;;;19.88;8.77;;;;;;;;;;4967586;28;20035;-69
2021/07/08 05:20:19;;;;;;;21.85;9.10;;;;;;;;;;4956503;28;20031;-67
2021/07/08 05:22:47;;;;;;;18.15;9.35;;;;;;;;;;4960642;28;20109;-69
2021/07/08 05:25:17;;;;;;;17.60;9.23;;;;;;;;;;4968145;28;20528;-67
2021/07/08 05:27:43;;;;;;;23.60;9.65;;;;;;;;;;4963308;28;20038;-70
2021/07/08 05:30:10;;;;;;;24.60;10.27;;;;;;;;;;4968229;28;20094;-68
2021/07/08 05:32:36;;;;;;;17.92;8.48;;;;;;;;;;4966905;28;20054;-70
2021/07/08 05:35:03;;;;;;;24.52;8.30;;;;;;;;;;4968256;28;20478;-66
2021/07/08 05:37:29;;;;;;;23.45;9.35;;;;;;;;;;4971786;28;20047;-69
2021/07/08 05:39:55;;;;;;;20.35;10.23;;;;;;;;;;4964873;28;20110;-68
2021/07/08 05:42:21;;;;;;;39.28;10.15;;;;;;;;;;4966967;28;20038;-69
2021/07/08 05:44:47;;;;;;;33.95;8.98;;;;;;;;;;4968464;28;20019;-69
2021/07/08 05:47:15;;;;;;;22.42;8.50;;;;;;;;;;4972648;28;20048;-66
2021/07/08 05:49:41;;;;;;;31.27;9.13;;;;;;;;;;4962975;28;20097;-65
2021/07/08 05:52:07;;;;;;;60.60;11.55;;;;;;;;;;4967121;28;20031;-66
2021/07/08 05:54:33;;;;;;;28.95;8.45;;;;;;;;;;4967792;28;20035;-66
2021/07/08 05:56:59;;;;;;;40.63;8.90;;;;;;;;;;4965418;28;20040;-67
2021/07/08 05:59:28;;;;;;;31.35;8.25;;;;;;;;;;4972887;28;20484;-66
2021/07/08 06:01:55;;;;;;;26.67;8.32;;;;;;;;;;4965657;28;20023;-66
2021/07/08 06:04:23;;;;;;;22.80;7.28;;;;;;;;;;4967537;28;20048;-70
2021/07/08 06:06:49;;;;;;;24.50;8.50;;;;;;;;;;4962634;28;20024;-66
2021/07/08 06:09:15;;;;;;;21.77;8.15;;;;;;;;;;4969837;28;20030;-67
2021/07/08 06:11:42;;;;;;;26.25;8.60;;;;;;;;;;4965964;28;20027;-71
2021/07/08 06:14:08;;;;;;;46.47;9.25;;;;;;;;;;4970818;28;20042;-64
2021/07/08 06:16:34;;;;;;;38.13;9.05;;;;;;;;;;4961437;28;20035;-85
2021/07/08 06:19:03;;;;;;;25.48;8.43;;;;;;;;;;4964876;28;20038;-73
2021/07/08 06:21:29;;;;;;;29.05;8.98;;;;;;;;;;4960985;28;20162;-79
2021/07/08 06:23:55;;;;;;;20.92;8.20;;;;;;;;;;4962591;28;20027;-70
2021/07/08 06:26:21;;;;;;;32.35;9.48;;;;;;;;;;4962715;28;20026;-68
2021/07/08 06:28:47;;;;;;;29.65;9.10;;;;;;;;;;4967169;28;20035;-68
2021/07/08 06:34:13;;;;;;;28.70;8.48;;;;;;;;;;4959106;28;20118;-66
2021/07/08 06:36:49;;;;;;;19.85;8.80;;;;;;;;;;4957542;28;20051;-79
2021/07/08 06:39:15;;;;;;;27.77;9.30;;;;;;;;;;4967834;28;20046;-70
2021/07/08 06:41:41;;;;;;;31.73;9.98;;;;;;;;;;4965625;28;20035;-76
2021/07/08 06:44:07;;;;;;;21.30;9.20;;;;;;;;;;4970302;28;20035;-65
2021/07/08 06:46:33;;;;;;;17.70;8.70;;;;;;;;;;4966603;28;20054;-71
2021/07/08 06:49:00;;;;;;;21.20;8.73;;;;;;;;;;4970881;28;20085;-78
2021/07/08 06:51:26;;;;;;;17.95;8.20;;;;;;;;;;4961454;28;20024;-83
2021/07/08 06:53:54;;;;;;;27.45;9.15;;;;;;;;;;4962563;28;20035;-72
2021/07/08 06:56:20;;;;;;;28.65;9.40;;;;;;;;;;4961943;28;20035;-75
2021/07/08 06:58:46;;;;;;;18.50;8.15;;;;;;;;;;4964535;28;20044;-78
2021/07/08 07:01:12;;;;;;;17.48;7.88;;;;;;;;;;4965439;28;20045;-74
2021/07/08 07:03:39;;;;;;;18.60;7.90;;;;;;;;;;4960155;28;20023;-73
2021/07/08 07:06:05;;;;;;;26.17;8.52;;;;;;;;;;4966808;28;20022;-73
2021/07/08 07:08:33;;;;;;;20.20;7.75;;;;;;;;;;4961876;28;20068;-75
2021/07/08 07:10:59;;;;;;;22.95;7.45;;;;;;;;;;4964015;28;20023;-70
2021/07/08 07:13:25;;;;;;;25.73;8.02;;;;;;;;;;4961837;28;20027;-70
2021/07/08 07:15:52;;;;;;;20.00;8.00;;;;;;;;;;4967406;28;20027;-78
2021/07/08 07:18:18;;;;;;;17.73;8.55;;;;;;;;;;4962719;28;20043;-72
2021/07/08 07:20:44;;;;;;;19.42;8.38;;;;;;;;;;4966978;28;20101;-71
2021/07/08 07:23:10;;;;;;;37.72;9.75;;;;;;;;;;4958595;28;20074;-77
2021/07/08 07:25:40;;;;;;;16.60;8.23;;;;;;;;;;4971709;28;20039;-72
2021/07/08 07:28:06;;;;;;;19.95;7.68;;;;;;;;;;4964359;28;20496;-70
2021/07/08 07:30:32;;;;;;;22.25;7.82;;;;;;;;;;4965481;28;20034;-75
2021/07/08 07:32:58;;;;;;;22.38;8.85;;;;;;;;;;4962076;28;20480;-73
2021/07/08 07:35:25;;;;;;;19.30;7.50;;;;;;;;;;4969276;28;20455;-74
2021/07/08 07:37:51;;;;;;;17.38;7.72;;;;;;;;;;4959810;28;20058;-74
2021/07/08 07:40:18;;;;;;;11.48;7.00;;;;;;;;;;4959066;28;20035;-65
2021/07/08 07:42:44;;;;;;;18.02;7.72;;;;;;;;;;4962439;28;20045;-68
2021/07/08 07:45:10;;;;;;;20.60;7.90;;;;;;;;;;4959251;28;20135;-67
2021/07/08 07:47:37;;;;;;;24.65;7.05;;;;;;;;;;4972129;28;20496;-67
2021/07/08 07:50:04;;;;;;;8.27;6.07;;;;;;;;;;4966712;28;20082;-67
2021/07/08 07:52:30;;;;;;;25.77;7.60;;;;;;;;;;4965354;28;20507;-67
2021/07/08 07:54:56;;;;;;;16.25;7.55;;;;;;;;;;4968175;28;20028;-67
2021/07/08 07:57:22;;;;;;;17.77;7.72;;;;;;;;;;4964724;28;20104;-67
2021/07/08 07:59:50;;;;;;;15.68;7.63;;;;;;;;;;4968247;28;20380;-67
2021/07/08 08:02:18;;;;;;;16.85;8.02;;;;;;;;;;4944126;28;20401;-67
2021/07/08 08:05:08;;;;;;;42.05;7.78;;;;;;;;;;4966540;28;20015;-67
2021/07/08 08:10:20;;;;;;;13.60;6.55;;;;;;;;;;4959147;28;20512;-67
2021/07/08 08:12:46;;;;;;;13.68;7.18;;;;;;;;;;4970147;28;20062;-67
2021/07/08 08:15:15;;;;;;;17.55;6.72;;;;;;;;;;4960435;28;20036;-65
2021/07/08 08:17:41;;;;;;;19.23;7.35;;;;;;;;;;4959207;28;20066;-67
2021/07/08 08:20:07;;;;;;;10.07;6.32;;;;;;;;;;4971290;28;20029;-66
2021/07/08 08:22:35;;;;;;;14.05;6.70;;;;;;;;;;4962615;28;20022;-66
2021/07/08 08:25:01;;;;;;;12.45;6.05;;;;;;;;;;4957742;28;20330;-67
2021/07/08 08:27:27;;;;;;;12.77;6.25;;;;;;;;;;4964580;28;20085;-66
2021/07/08 08:29:53;;;;;;;8.38;6.32;;;;;;;;;;4962121;28;20445;-66
2021/07/08 08:32:19;;;;;;;10.43;6.55;;;;;;;;;;4967178;28;20037;-67
2021/07/08 08:34:45;;;;;;;32.63;8.02;;;;;;;;;;4958229;28;20027;-68
2021/07/08 08:37:11;;;;;;;12.35;6.80;;;;;;;;;;4960302;28;20050;-66
2021/07/08 08:39:37;;;;;;;14.88;6.82;;;;;;;;;;4964340;28;20172;-67
2021/07/08 08:42:06;;;;;;;13.13;7.22;;;;;;;;;;4964246;28;20027;-67
2021/07/08 08:44:38;;;;;;;12.52;7.35;;;;;;;;;;4960305;28;20026;-65
2021/07/08 08:47:08;;;;;;;9.80;6.67;;;;;;;;;;4964174;28;20030;-68
2021/07/08 08:49:41;;;;;;;9.85;6.70;;;;;;;;;;4965849;28;20047;-69
2021/07/08 08:52:09;;;;;;;11.45;6.80;;;;;;;;;;4961472;28;20039;-69
2021/07/08 08:54:35;;;;;;;15.50;6.32;;;;;;;;;;4958744;28;20026;-70
2021/07/08 08:57:02;;;;;;;11.90;7.10;;;;;;;;;;4958007;28;20455;-68
2021/07/08 08:59:30;;;;;;;15.63;6.28;;;;;;;;;;4951344;28;20069;-70
2021/07/08 09:02:13;;;;;;;17.42;7.15;;;;;;;;;;4951433;28;20035;-69
2021/07/08 09:04:40;;;;;;;9.65;5.97;;;;;;;;;;4957858;28;20035;-74
2021/07/08 09:07:42;;;;;;;21.65;6.75;;;;;;;;;;4957803;28;20445;-81
2021/07/08 09:10:12;;;;;;;11.50;6.70;;;;;;;;;;4889822;29;20040;-68
2021/07/08 09:12:38;;;;;;;13.52;6.28;;;;;;;;;;4894267;29;20041;-67
2021/07/08 09:15:17;;;;;;;10.50;6.45;;;;;;;;;;4894460;29;20118;-66
2021/07/08 09:17:44;;;;;;;10.10;6.13;;;;;;;;;;4884060;29;20052;-69
2021/07/08 09:20:12;;;;;;;12.48;6.32;;;;;;;;;;4892428;29;20076;-67
2021/07/08 09:22:38;;;;;;;15.18;6.63;;;;;;;;;;4894294;29;20454;-68
2021/07/08 09:25:19;;;;;;;8.75;6.45;;;;;;;;;;4888277;29;20680;-68
2021/07/08 09:27:48;;;;;;;8.93;6.60;;;;;;;;;;4891550;29;20152;-74
2021/07/08 09:30:28;;;;;;;14.73;7.88;;;;;;;;;;4896675;29;20032;-71
2021/07/08 09:32:54;;;;;;;14.25;6.68;;;;;;;;;;4884692;29;20043;-68
2021/07/08 09:35:39;;;;;;;11.68;6.13;;;;;;;;;;4890892;29;20077;-68
2021/07/08 09:38:08;;;;;;;11.45;6.50;;;;;;;;;;4891823;29;20068;-68
2021/07/08 09:40:34;;;;;;;12.30;5.47;;;;;;;;;;4905908;29;20033;-68
2021/07/08 09:43:01;;;;;;;14.05;5.97;;;;;;;;;;4910336;28;20036;-67
2021/07/08 09:45:46;;;;;;;11.70;6.15;;;;;;;;;;4965030;28;20111;-71
2021/07/08 09:48:19;;;;;;;14.82;5.68;;;;;;;;;;4964839;28;20027;-69
2021/07/08 09:50:45;;;;;;;8.25;5.55;;;;;;;;;;4969679;28;20487;-66
2021/07/08 09:53:21;;;;;;;9.63;5.70;;;;;;;;;;4967522;28;20548;-72
2021/07/08 09:56:02;;;;;;;13.77;5.65;;;;;;;;;;4974432;28;20187;-77
2021/07/08 09:58:28;;;;;;;15.23;5.75;;;;;;;;;;4958877;28;20031;-77
2021/07/08 10:00:54;;;;;;;13.77;5.80;;;;;;;;;;4966975;28;20476;-73
2021/07/08 10:03:21;;;;;;;11.15;5.72;;;;;;;;;;4968153;28;20027;-73
2021/07/08 10:05:47;;;;;;;8.98;5.70;;;;;;;;;;4969685;28;20022;-73
2021/07/08 10:08:13;;;;;;;13.20;5.78;;;;;;;;;;4965571;28;20486;-73
2021/07/08 10:10:40;;;;;;;9.50;5.68;;;;;;;;;;4964953;28;20030;-70
2021/07/08 10:13:07;;;;;;;10.13;5.10;;;;;;;;;;4971073;28;20027;-77
2021/07/08 10:15:35;;;;;;;12.60;5.75;;;;;;;;;;4961774;28;20031;-75
2021/07/08 10:18:03;;;;;;;16.00;5.50;;;;;;;;;;4966909;28;20109;-63
2021/07/08 10:20:30;;;;;;;15.52;6.07;;;;;;;;;;4964103;28;20031;-67
2021/07/08 10:22:57;;;;;;;9.73;5.55;;;;;;;;;;4961464;28;20045;-65
2021/07/08 10:25:23;;;;;;;8.32;5.18;;;;;;;;;;4963148;28;20089;-68
2021/07/08 10:27:49;;;;;;;8.25;5.35;;;;;;;;;;4965170;28;20397;-68
2021/07/08 10:30:19;;;;;;;10.00;5.40;;;;;;;;;;4962421;28;20035;-66
2021/07/08 10:32:45;;;;;;;9.40;5.20;;;;;;;;;;4970789;28;20062;-75
2021/07/08 10:35:12;;;;;;;7.63;5.57;;;;;;;;;;4962307;28;20508;-76
2021/07/08 10:37:43;;;;;;;19.15;6.05;;;;;;;;;;4963360;28;20047;-81
2021/07/08 10:40:25;;;;;;;6.50;5.50;;;;;;;;;;4968418;28;20030;-81
2021/07/08 10:42:53;;;;;;;11.77;6.00;;;;;;;;;;4961112;28;20034;-79
2021/07/08 10:45:22;;;;;;;10.38;5.68;;;;;;;;;;4960544;28;20489;-74
2021/07/08 10:48:09;;;;;;;7.68;5.38;;;;;;;;;;4970007;28;20023;-68
2021/07/08 10:50:38;;;;;;;8.35;5.55;;;;;;;;;;4965810;28;20038;-67
2021/07/08 10:53:17;;;;;;;11.73;5.75;;;;;;;;;;4961359;28;20031;-68
2021/07/08 10:55:45;;;;;;;10.93;5.45;;;;;;;;;;4964623;28;20027;-73
2021/07/08 10:58:30;;;;;;;9.60;5.03;;;;;;;;;;4967192;28;20035;-72
2021/07/08 11:00:56;;;;;;;11.10;5.90;;;;;;;;;;4970720;28;20428;-69
2021/07/08 11:03:39;;;;;;;8.15;5.45;;;;;;;;;;4966844;28;20050;-76
2021/07/08 11:06:04;;;;;;;;;;;;;;;;;;4964111;28;20023;-71
2021/07/08 11:08:58;;;;;;;8.13;5.38;;;;;;;;;;4960860;28;19924;-67
2021/07/08 11:11:24;;;;;;;;;;;;;;;;;;4907904;29;20502;-68
2021/07/08 11:13:54;;;;;;;12.15;5.70;;;;;;;;;;4893904;29;19915;-68
2021/07/08 11:16:38;;;;;;;12.60;5.65;;;;;;;;;;4894285;29;20123;-68
2021/07/08 11:19:04;;;;;;;11.63;5.57;;;;;;;;;;4906309;29;20032;-63
2021/07/08 11:21:49;;;;;;;14.73;5.50;;;;;;;;;;4906099;29;20052;-64
2021/07/08 11:24:18;;;;;;;16.38;5.40;;;;;;;;;;4904944;29;20052;-62
2021/07/08 11:26:54;;;;;;;10.10;4.95;;;;;;;;;;4899438;29;20038;-69
2021/07/08 11:29:36;;;;;;;10.60;5.18;;;;;;;;;;4903321;29;20119;-71
2021/07/08 11:32:21;;;;;;;14.63;5.20;;;;;;;;;;4908829;29;20036;-70
2021/07/08 11:34:53;;;;;;;9.27;5.38;;;;;;;;;;4907740;29;20431;-68
2021/07/08 11:37:25;;;;;;;12.18;5.28;;;;;;;;;;4903605;29;20191;-70
2021/07/08 11:39:56;;;;;;;9.18;5.50;;;;;;;;;;4901138;29;20040;-70
2021/07/08 11:42:24;;;;;;;9.98;5.00;;;;;;;;;;4909570;29;20247;-70
2021/07/08 11:45:03;;;;;;;9.93;5.43;;;;;;;;;;4901845;29;20029;-70
2021/07/08 11:47:38;;;;;;;8.63;4.63;;;;;;;;;;4919516;28;20042;-73
2021/07/08 11:50:06;;;;;;;11.30;5.70;;;;;;;;;;4966608;28;20023;-72
2021/07/08 11:52:32;;;;;;;7.97;5.43;;;;;;;;;;4957795;28;20023;-65
2021/07/08 11:55:01;;;;;;;9.98;5.28;;;;;;;;;;4957509;28;20099;-75
2021/07/08 11:57:27;;;;;;;7.20;4.85;;;;;;;;;;4964382;28;20041;-66
2021/07/08 11:59:54;;;;;;;6.63;5.13;;;;;;;;;;4966739;28;20027;-77
2021/07/08 12:02:33;;;;;;;9.18;5.30;;;;;;;;;;4965342;28;20027;-76
2021/07/08 12:05:12;;;;;;;8.38;5.50;;;;;;;;;;4960030;28;20023;-84
2021/07/08 12:07:42;;;;;;;7.35;5.10;;;;;;;;;;4968977;28;20475;-84
2021/07/08 12:10:09;;;;;;;7.97;4.78;;;;;;;;;;4975430;28;20027;-72
2021/07/08 12:12:36;;;;;;;7.82;5.10;;;;;;;;;;4965325;28;20031;-74
2021/07/08 12:15:03;;;;;;;7.78;5.25;;;;;;;;;;4959087;28;20035;-73
2021/07/08 12:17:31;;;;;;;12.13;5.53;;;;;;;;;;4961838;28;20054;-69
2021/07/08 12:20:07;;;;;;;14.50;5.47;;;;;;;;;;4963337;28;20158;-70
2021/07/08 12:22:33;;;;;;;6.90;5.00;;;;;;;;;;4955886;28;20027;-66
2021/07/08 12:24:59;;;;;;;7.15;4.80;;;;;;;;;;4969389;28;20030;-69
2021/07/08 12:27:27;;;;;;;16.25;5.65;;;;;;;;;;4963414;28;20496;-64
2021/07/08 12:29:53;;;;;;;8.18;4.90;;;;;;;;;;4958339;28;20023;-67
2021/07/08 12:32:22;;;;;;;13.48;5.65;;;;;;;;;;4960958;28;20031;-68
2021/07/08 12:34:53;;;;;;;9.38;5.15;;;;;;;;;;4960481;28;20027;-71
2021/07/08 12:37:27;;;;;;;15.07;5.20;;;;;;;;;;4964414;28;20066;-63
2021/07/08 12:40:13;;;;;;;10.25;5.30;;;;;;;;;;4965468;28;20031;-65
2021/07/08 12:42:41;;;;;;;11.05;5.05;;;;;;;;;;4965568;28;20027;-72
2021/07/08 12:45:11;;;;;;;11.52;5.05;;;;;;;;;;4960723;28;20034;-67
2021/07/08 12:47:38;;;;;;;20.17;5.78;;;;;;;;;;4969854;28;20162;-72
2021/07/08 12:50:05;;;;;;;8.55;5.05;;;;;;;;;;4966592;28;20113;-66
2021/07/08 12:52:32;;;;;;;18.85;5.50;;;;;;;;;;4970241;28;20045;-68
2021/07/08 12:54:58;;;;;;;8.60;5.43;;;;;;;;;;4968511;28;20405;-70
2021/07/08 12:57:24;;;;;;;11.40;4.93;;;;;;;;;;4960773;28;20102;-68
2021/07/08 12:59:56;;;;;;;8.45;4.82;;;;;;;;;;4965621;28;20030;-72
2021/07/08 13:02:25;;;;;;;6.38;4.63;;;;;;;;;;4964983;28;20057;-65
2021/07/08 13:05:03;;;;;;;12.05;5.72;;;;;;;;;;4962152;28;20023;-69
2021/07/08 13:07:29;;;;;;;11.00;5.22;;;;;;;;;;4965021;28;20033;-70
2021/07/08 13:09:56;;;;;;;16.02;4.90;;;;;;;;;;4967595;28;20027;-71
2021/07/08 13:12:22;;;;;;;7.20;4.97;;;;;;;;;;4968410;28;20034;-61
2021/07/08 13:14:49;;;;;;;7.90;5.25;;;;;;;;;;4969984;28;20042;-71
2021/07/08 13:17:15;;;;;;;8.77;4.75;;;;;;;;;;4961822;28;20094;-70
2021/07/08 13:19:42;;;;;;;8.90;4.93;;;;;;;;;;4959542;28;20358;-70
2021/07/08 13:22:09;;;;;;;9.25;4.80;;;;;;;;;;4957054;28;20062;-62
2021/07/08 13:24:35;;;;;;;8.70;4.63;;;;;;;;;;4962546;28;20059;-69
2021/07/08 13:27:05;;;;;;;6.40;4.68;;;;;;;;;;4952215;28;20038;-68
2021/07/08 13:29:42;;;;;;;11.30;4.78;;;;;;;;;;4951928;28;20050;-71
2021/07/08 13:32:15;;;;;;;10.77;4.60;;;;;;;;;;4951501;28;20039;-70
2021/07/08 13:34:45;;;;;;;7.50;4.82;;;;;;;;;;4957914;28;20114;-77
2021/07/08 13:37:17;;;;;;;15.52;4.63;;;;;;;;;;4965680;28;20516;-67
2021/07/08 13:39:44;;;;;;;7.22;4.72;;;;;;;;;;4961759;28;20090;-84
2021/07/08 13:42:10;;;;;;;7.45;4.68;;;;;;;;;;4958949;28;20114;-69
2021/07/08 13:44:40;;;;;;;10.68;5.47;;;;;;;;;;4957006;28;20391;-66
2021/07/08 13:47:06;;;;;;;41.20;6.65;;;;;;;;;;4964058;28;20122;-75
2021/07/08 13:49:38;;;;;;;9.93;4.63;;;;;;;;;;4963972;28;20022;-72
2021/07/08 13:52:08;;;;;;;13.88;4.78;;;;;;;;;;4956682;28;20562;-71
2021/07/08 13:54:37;;;;;;;11.48;5.07;;;;;;;;;;4962603;28;20054;-67
2021/07/08 13:57:05;;;;;;;13.88;4.80;;;;;;;;;;4966274;28;20038;-68
2021/07/08 13:59:31;;;;;;;12.43;4.85;;;;;;;;;;4966543;28;20587;-70
2021/07/08 14:02:00;;;;;;;7.63;4.40;;;;;;;;;;4965226;28;20377;-73
2021/07/08 14:04:26;;;;;;;6.35;4.68;;;;;;;;;;4959497;28;20054;-69
2021/07/08 14:06:54;;;;;;;7.78;4.50;;;;;;;;;;4966992;28;20031;-69
2021/07/08 14:09:22;;;;;;;23.42;5.45;;;;;;;;;;4967678;28;20106;-68
2021/07/08 14:11:49;;;;;;;12.00;5.13;;;;;;;;;;4961201;28;20027;-69
2021/07/08 14:14:20;;;;;;;5.28;4.78;;;;;;;;;;4959681;28;20054;-70
2021/07/08 14:16:48;;;;;;;6.47;4.73;;;;;;;;;;4963289;28;20031;-71
2021/07/08 14:19:14;;;;;;;11.13;5.07;;;;;;;;;;4961587;28;20026;-70
2021/07/08 14:21:40;;;;;;;9.30;4.95;;;;;;;;;;4961180;28;20046;-70
2021/07/08 14:24:07;;;;;;;5.45;4.40;;;;;;;;;;4964221;28;20027;-70
2021/07/08 14:26:33;;;;;;;15.10;4.97;;;;;;;;;;4942088;28;20024;-71
2021/07/08 14:28:59;;;;;;;6.40;4.85;;;;;;;;;;4962372;28;20023;-69
2021/07/08 14:31:26;;;;;;;10.15;5.05;;;;;;;;;;4970709;28;20027;-63
2021/07/08 14:33:52;;;;;;;8.77;4.82;;;;;;;;;;4968910;28;20022;-68
2021/07/08 14:36:18;;;;;;;10.38;5.03;;;;;;;;;;4966732;28;20102;-68
2021/07/08 14:38:44;;;;;;;8.35;4.80;;;;;;;;;;4965080;28;20062;-67
2021/07/08 14:41:11;;;;;;;9.48;5.32;;;;;;;;;;4965573;28;20033;-74
2021/07/08 14:43:46;;;;;;;10.88;4.55;;;;;;;;;;4956607;28;20027;-74
2021/07/08 14:46:13;;;;;;;9.23;5.07;;;;;;;;;;4962608;28;20027;-71
2021/07/08 14:48:39;;;;;;;8.07;4.80;;;;;;;;;;4966466;28;20063;-66
2021/07/08 14:51:17;;;;;;;8.93;4.40;;;;;;;;;;4958591;28;20028;-68
2021/07/08 14:53:54;;;;;;;9.13;4.95;;;;;;;;;;4962464;28;20033;-69
2021/07/08 14:56:20;;;;;;;9.57;5.20;;;;;;;;;;4961004;28;20035;-74
2021/07/08 14:58:47;;;;;;;11.52;5.10;;;;;;;;;;4961000;28;20027;-70
2021/07/08 15:01:22;;;;;;;9.65;5.13;;;;;;;;;;4958732;28;20054;-70
2021/07/08 15:03:53;;;;;;;19.70;5.45;;;;;;;;;;4955213;28;20039;-81
2021/07/08 15:06:19;;;;;;;14.65;5.22;;;;;;;;;;4951823;28;20027;-70
2021/07/08 15:08:45;;;;;;;11.35;5.20;;;;;;;;;;4967116;28;20555;-69
2021/07/08 15:11:11;;;;;;;11.52;4.93;;;;;;;;;;4971413;28;20031;-76
2021/07/08 15:13:37;;;;;;;10.98;4.82;;;;;;;;;;4961784;28;20035;-64
2021/07/08 15:16:09;;;;;;;7.00;5.03;;;;;;;;;;4962249;28;20050;-68
2021/07/08 15:18:36;;;;;;;16.33;5.50;;;;;;;;;;4959605;28;20047;-68
2021/07/08 15:21:03;;;;;;;12.70;5.10;;;;;;;;;;4960566;28;20026;-69
2021/07/08 15:23:29;;;;;;;11.70;5.32;;;;;;;;;;4965324;28;20398;-65
2021/07/08 15:25:55;;;;;;;20.83;5.32;;;;;;;;;;4965695;28;20083;-68
2021/07/08 15:28:21;;;;;;;10.98;5.05;;;;;;;;;;4970638;28;20041;-69
2021/07/08 15:30:47;;;;;;;7.15;4.95;;;;;;;;;;4968232;28;20027;-68
2021/07/08 15:33:17;;;;;;;10.77;5.43;;;;;;;;;;4959617;28;20034;-69
2021/07/08 15:35:44;;;;;;;16.02;5.40;;;;;;;;;;4964429;28;20062;-68
2021/07/08 15:38:10;;;;;;;11.07;5.18;;;;;;;;;;4959442;28;20075;-67
2021/07/08 15:40:37;;;;;;;6.82;4.60;;;;;;;;;;4971165;28;20532;-71
2021/07/08 15:43:03;;;;;;;9.93;5.18;;;;;;;;;;4939630;28;20375;-63